To NAV CANADA Home Page Login to a new session Search on AWWS site Feedback and Comments Disclaimer Vers la page française équivalente Tips FAQ What's new on the site To the Forecasts and Observations / NOTAM section To "File a Flight Plan" website Publications and other links Update of the User's profile FIC Telephone Numbers My Weather Data Folder Route Weather Data Regional Weather Data Local Weather Data To the Forecasts and Observations / NOTAM section
Request Generated 04/01/2015 at 16:30:41 UTC . Weather information available at that time is displayed.

METAR/TAF

MOOSE JAW/AIR VICE MARSHAL C.M. MCEWEN/SK    

METAR CYMJ 011600Z 30021KT 15SM FEW020 BKN180 05/01 A2956 RMK SC2AC5 SLP028=
SPECI CYMJ 011530Z 30018G26KT 15SM SCT023 BKN180 05/01 A2956 RMK SC3AC2 SLP028=
METAR CYMJ 011500Z 30023G28KT 15SM BKN022 05/02 A2955 RMK SC7 SLP022=
SPECI CYMJ 011428Z 29015KT 15SM OVC020 06/03 A2953 RMK SC8 SLP016=
METAR CYMJ 011400Z 30016KT 15SM BKN018 BKN030 06/04 A2952 RMK SC6SC2 SLP003=

TAF AMD CYMJ 011236Z 0112/0124 28015G25KT P6SM FEW009 SCT040 BKN120
TEMPO 0112/0117 BKN009 OVC015
BECMG 0114/0116 28025G35KT
FM011700 28025G35KT P6SM FEW040 SCT120
BECMG 0121/0123 BKN070
RMK NXT FCST BY 011800Z=
Your time UTC time
Weather data provided by Environment Canada and NAV CANADA